Time;durP1;ratioP1;P1;durP2;ratioP2;P2;SDS_P1;SDS_P2;PMS_P1;PMS_P2;Temp;Humidity;BMP_temperature;BMP_pressure;BME280_temperature;BME280_humidity;BME280_pressure;Samples;Min_cycle;Max_cycle;Signal;HPM_P1;HPM_P2
2023/03/15 00:00:22;;;;;;;;;;;17.00;39.50;;;;;;5137715;27;19919;-69
2023/03/15 00:02:47;;;;;;;;;;;17.00;39.40;;;;;;5156440;27;19919;-70
2023/03/15 00:05:13;;;;;;;;;;;17.00;39.40;;;;;;5156291;27;19919;-68
2023/03/15 00:07:40;;;;;;;;;;;17.00;39.40;;;;;;5137894;27;19926;-68
2023/03/15 00:10:05;;;;;;;;;;;17.00;39.40;;;;;;5138019;27;19962;-70
2023/03/15 00:12:33;;;;;;;;;;;17.00;39.50;;;;;;5137502;27;20018;-68
2023/03/15 00:14:58;;;;;;;;;;;17.00;39.50;;;;;;5137394;27;20378;-68
2023/03/15 00:17:24;;;;;;;;;;;16.90;39.40;;;;;;5137709;27;19930;-68
2023/03/15 00:19:49;;;;;;;;;;;17.00;39.90;;;;;;5137690;27;20441;-68
2023/03/15 00:22:15;;;;;;;;;;;17.00;39.50;;;;;;5155926;27;19958;-68
2023/03/15 00:24:40;;;;;;;;;;;16.90;39.50;;;;;;5155919;27;19919;-68
2023/03/15 00:27:06;;;;;;;;;;;16.90;39.50;;;;;;5155872;27;20327;-68
2023/03/15 00:29:32;;;;;;;;;;;16.90;39.50;;;;;;5137167;27;19923;-68
2023/03/15 00:31:57;;;;;;;;;;;16.90;39.50;;;;;;5137015;27;19923;-67
2023/03/15 00:34:24;;;;;;;;;;;16.90;39.50;;;;;;5136539;27;19919;-68
2023/03/15 00:36:52;;;;;;;;;;;16.90;39.60;;;;;;5136562;27;19919;-68
2023/03/15 00:39:18;;;;;;;;;;;16.90;39.60;;;;;;5137462;27;19919;-67
2023/03/15 00:41:44;;;;;;;;;;;16.90;39.60;;;;;;5137247;27;20267;-68
2023/03/15 00:44:10;;;;;;;;;;;16.90;39.60;;;;;;5155493;27;19926;-69
2023/03/15 00:46:36;;;;;;;;;;;16.90;39.70;;;;;;5136825;27;20374;-67
2023/03/15 00:49:01;;;;;;;;;;;16.90;39.60;;;;;;5155570;27;20044;-68
2023/03/15 00:51:27;;;;;;;;;;;16.90;39.60;;;;;;5155478;27;19934;-67
2023/03/15 00:53:52;;;;;;;;;;;16.90;39.60;;;;;;5155396;27;19919;-68
2023/03/15 00:56:19;;;;;;;;;;;16.90;39.70;;;;;;5136663;27;20303;-68
2023/03/15 00:58:45;;;;;;;;;;;16.80;39.60;;;;;;5136623;27;20013;-68
2023/03/15 01:01:13;;;;;;;;;;;16.90;39.70;;;;;;5136601;27;19993;-68
2023/03/15 01:03:39;;;;;;;;;;;16.80;39.70;;;;;;5155109;27;20007;-68
2023/03/15 01:06:06;;;;;;;;;;;16.90;39.70;;;;;;5136373;27;19919;-68
2023/03/15 01:08:34;;;;;;;;;;;16.90;39.70;;;;;;5136741;27;19919;-68
2023/03/15 01:11:04;;;;;;;;;;;16.90;39.70;;;;;;5153582;27;19919;-68
2023/03/15 01:13:30;;;;;;;;;;;16.90;39.70;;;;;;5154781;27;19930;-68
2023/03/15 01:15:55;;;;;;;;;;;16.90;39.70;;;;;;5154900;27;20288;-68
2023/03/15 01:18:21;;;;;;;;;;;16.90;39.70;;;;;;5155241;27;19923;-68
2023/03/15 01:20:46;;;;;;;;;;;16.90;39.70;;;;;;5154836;27;19930;-68
2023/03/15 01:23:12;;;;;;;;;;;16.90;39.70;;;;;;5154740;27;20006;-68
2023/03/15 01:25:38;;;;;;;;;;;17.10;39.70;;;;;;5153610;27;20013;-68
2023/03/15 01:28:03;;;;;;;;;;;17.30;39.50;;;;;;5136188;27;20319;-68
2023/03/15 01:30:29;;;;;;;;;;;17.60;39.20;;;;;;5136300;27;19956;-68
2023/03/15 01:32:54;;;;;;;;;;;18.00;38.90;;;;;;5153116;27;19923;-68
2023/03/15 01:35:20;;;;;;;;;;;18.40;38.30;;;;;;5153175;27;19926;-69
2023/03/15 01:37:48;;;;;;;;;;;19.00;37.70;;;;;;5153217;27;19919;-68
2023/03/15 01:40:13;;;;;;;;;;;19.40;37.10;;;;;;5154530;27;19919;-70
2023/03/15 01:42:59;;;;;;;;;;;19.90;36.60;;;;;;5136077;27;19919;-68
2023/03/15 01:45:44;;;;;;;;;;;20.30;36.00;;;;;;5135845;27;19919;-68
2023/03/15 01:48:10;;;;;;;;;;;20.70;35.40;;;;;;5135564;27;19919;-69
2023/03/15 01:50:35;;;;;;;;;;;21.00;35.00;;;;;;5154240;27;19925;-68
2023/03/15 01:53:01;;;;;;;;;;;21.20;34.50;;;;;;5135578;27;19930;-68
2023/03/15 01:55:26;;;;;;;;;;;21.40;34.10;;;;;;5152925;27;19970;-68
2023/03/15 01:57:54;;;;;;;;;;;21.60;34.00;;;;;;5154147;27;19919;-68
2023/03/15 02:00:20;;;;;;;;;;;21.80;33.70;;;;;;5135624;27;20386;-68
2023/03/15 02:02:50;;;;;;;;;;;21.90;33.50;;;;;;5154248;27;20029;-68
2023/03/15 02:05:18;;;;;;;;;;;22.00;33.20;;;;;;5135811;27;19919;-69
2023/03/15 02:07:48;;;;;;;;;;;22.10;33.10;;;;;;5135456;27;20431;-68
2023/03/15 02:10:20;;;;;;;;;;;22.20;33.00;;;;;;5135421;27;20474;-69
2023/03/15 02:12:47;;;;;;;;;;;22.20;32.90;;;;;;5153463;27;20354;-69
2023/03/15 02:15:13;;;;;;;;;;;22.20;32.90;;;;;;5153865;27;20017;-69
2023/03/15 02:17:42;;;;;;;;;;;22.20;32.80;;;;;;5153830;27;19919;-68
2023/03/15 02:20:26;;;;;;;;;;;22.20;32.80;;;;;;5135332;27;19919;-69
2023/03/15 02:28:17;;;;;;;;;;;22.00;32.90;;;;;;5089834;28;19912;-69
2023/03/15 02:30:43;;;;;;;;;;;21.90;32.90;;;;;;5088634;28;19994;-68
2023/03/15 02:33:13;;;;;;;;;;;21.80;33.10;;;;;;5088814;28;20011;-69
2023/03/15 02:35:39;;;;;;;;;;;21.70;33.20;;;;;;5088465;28;20425;-69
2023/03/15 02:38:04;;;;;;;;;;;21.60;33.20;;;;;;5105694;28;19920;-69
2023/03/15 02:40:30;;;;;;;;;;;21.50;34.00;;;;;;5105820;28;20010;-69
2023/03/15 02:42:59;;;;;;;;;;;21.50;33.40;;;;;;5088550;28;20363;-69
2023/03/15 02:45:25;;;;;;;;;;;21.40;33.40;;;;;;5089663;28;19928;-69
2023/03/15 02:47:51;;;;;;;;;;;21.40;33.60;;;;;;5088138;28;19928;-69
2023/03/15 02:50:17;;;;;;;;;;;21.40;33.60;;;;;;5088558;28;20007;-69
2023/03/15 02:52:43;;;;;;;;;;;21.40;33.60;;;;;;5088216;28;20406;-69
2023/03/15 02:55:08;;;;;;;;;;;21.40;33.40;;;;;;5088163;28;19928;-69
2023/03/15 02:57:35;;;;;;;;;;;21.40;33.40;;;;;;5088308;28;20023;-69
2023/03/15 03:00:12;;;;;;;;;;;21.50;33.50;;;;;;5088228;28;19927;-69
2023/03/15 03:02:42;;;;;;;;;;;21.50;33.20;;;;;;5088064;28;20058;-69
2023/03/15 03:05:07;;;;;;;;;;;21.60;33.20;;;;;;5088229;28;20286;-69
2023/03/15 03:07:34;;;;;;;;;;;21.60;33.20;;;;;;5087999;28;19925;-69
2023/03/15 03:09:59;;;;;;;;;;;21.60;33.20;;;;;;5089037;28;19970;-69
2023/03/15 03:12:28;;;;;;;;;;;21.60;33.00;;;;;;5089438;28;19959;-69
2023/03/15 03:14:55;;;;;;;;;;;21.70;33.10;;;;;;5087728;28;19921;-69
2023/03/15 03:17:21;;;;;;;;;;;21.70;33.00;;;;;;5089058;28;19924;-70
2023/03/15 03:19:46;;;;;;;;;;;21.70;33.00;;;;;;5088954;28;20264;-70
2023/03/15 03:22:12;;;;;;;;;;;21.80;33.00;;;;;;5087619;28;19974;-70
2023/03/15 03:24:38;;;;;;;;;;;21.80;32.90;;;;;;5087474;28;19928;-69
2023/03/15 03:27:04;;;;;;;;;;;21.80;33.00;;;;;;5087251;28;19967;-69
2023/03/15 03:29:29;;;;;;;;;;;21.70;32.90;;;;;;5087446;28;19920;-69
2023/03/15 03:31:55;;;;;;;;;;;21.70;32.90;;;;;;5087718;28;19974;-69
2023/03/15 03:34:23;;;;;;;;;;;21.70;32.80;;;;;;5104516;28;20341;-69
2023/03/15 03:36:49;;;;;;;;;;;21.70;33.00;;;;;;5087498;28;19929;-69
2023/03/15 03:39:14;;;;;;;;;;;21.60;32.90;;;;;;5076914;28;20019;-69
2023/03/15 03:41:40;;;;;;;;;;;21.50;33.70;;;;;;5090935;28;20007;-69
2023/03/15 03:44:05;;;;;;;;;;;21.50;32.90;;;;;;5074009;28;20358;-69
2023/03/15 03:46:31;;;;;;;;;;;21.50;33.00;;;;;;5073813;28;20287;-69
2023/03/15 03:48:57;;;;;;;;;;;21.50;33.00;;;;;;5075388;28;19927;-69
2023/03/15 03:51:25;;;;;;;;;;;21.50;33.00;;;;;;5074839;28;19920;-69
2023/03/15 03:53:50;;;;;;;;;;;21.50;33.00;;;;;;5073598;28;20062;-69
2023/03/15 03:56:16;;;;;;;;;;;21.40;33.00;;;;;;5090495;28;20021;-69
2023/03/15 03:58:41;;;;;;;;;;;21.40;33.20;;;;;;5073793;28;20065;-69
2023/03/15 04:01:07;;;;;;;;;;;21.40;33.10;;;;;;5073428;28;20539;-69
2023/03/15 04:03:32;;;;;;;;;;;21.40;33.90;;;;;;5073457;28;19920;-69
2023/03/15 04:05:59;;;;;;;;;;;21.40;33.10;;;;;;5074471;28;19925;-69
2023/03/15 04:08:24;;;;;;;;;;;21.40;33.20;;;;;;5073524;28;20016;-70
2023/03/15 04:10:52;;;;;;;;;;;21.40;33.20;;;;;;5074499;28;20354;-70
2023/03/15 04:13:18;;;;;;;;;;;21.40;33.10;;;;;;5073508;28;19947;-70
2023/03/15 04:15:43;;;;;;;;;;;21.40;33.20;;;;;;5073414;28;19930;-69
2023/03/15 04:18:09;;;;;;;;;;;21.40;33.10;;;;;;5089906;28;20015;-70
2023/03/15 04:20:37;;;;;;;;;;;21.40;33.10;;;;;;5073099;28;19978;-70
2023/03/15 04:23:06;;;;;;;;;;;21.40;33.10;;;;;;5074254;28;19966;-69
2023/03/15 04:25:31;;;;;;;;;;;21.40;33.10;;;;;;5073164;28;19921;-69
2023/03/15 04:27:58;;;;;;;;;;;21.40;33.10;;;;;;5072717;28;20249;-69
2023/03/15 04:30:32;;;;;;;;;;;21.40;33.20;;;;;;5074220;28;19927;-70
2023/03/15 04:32:57;;;;;;;;;;;21.40;33.10;;;;;;5072808;28;19924;-70
2023/03/15 04:35:27;;;;;;;;;;;21.40;33.00;;;;;;5074009;28;19947;-70
2023/03/15 04:37:53;;;;;;;;;;;21.40;33.00;;;;;;5072673;28;19924;-70
2023/03/15 04:40:19;;;;;;;;;;;21.40;33.00;;;;;;5073986;28;20062;-70
2023/03/15 04:42:45;;;;;;;;;;;21.50;33.10;;;;;;5072913;28;20015;-69
2023/03/15 04:45:10;;;;;;;;;;;21.40;33.00;;;;;;5072888;28;20015;-70
2023/03/15 04:47:36;;;;;;;;;;;21.40;33.00;;;;;;5073725;28;19925;-70
2023/03/15 04:50:01;;;;;;;;;;;21.40;33.00;;;;;;5071521;28;19931;-69
2023/03/15 04:52:27;;;;;;;;;;;21.40;33.00;;;;;;5072321;28;20058;-70
2023/03/15 04:54:52;;;;;;;;;;;21.40;33.00;;;;;;5072350;28;19964;-69
2023/03/15 04:57:18;;;;;;;;;;;21.40;33.00;;;;;;5089061;28;19921;-69
2023/03/15 04:59:44;;;;;;;;;;;21.40;33.00;;;;;;5089188;28;19920;-70
2023/03/15 05:02:09;;;;;;;;;;;21.40;33.00;;;;;;5089167;28;20027;-70
2023/03/15 05:04:35;;;;;;;;;;;21.40;33.00;;;;;;5089058;28;19920;-69
2023/03/15 05:07:00;;;;;;;;;;;21.30;33.00;;;;;;5088829;28;19924;-70
2023/03/15 05:09:26;;;;;;;;;;;21.40;33.00;;;;;;5088789;28;19921;-70
2023/03/15 05:11:51;;;;;;;;;;;21.40;33.00;;;;;;5088941;28;20014;-70
2023/03/15 05:14:17;;;;;;;;;;;21.40;33.00;;;;;;5089197;28;20011;-70
2023/03/15 05:16:42;;;;;;;;;;;21.40;33.00;;;;;;5071939;28;20399;-70
2023/03/15 05:19:08;;;;;;;;;;;21.40;33.00;;;;;;5088786;28;19931;-71
2023/03/15 05:21:33;;;;;;;;;;;21.40;32.90;;;;;;5073292;28;19927;-70
2023/03/15 05:23:59;;;;;;;;;;;21.40;32.80;;;;;;5072231;28;19927;-70
2023/03/15 05:26:25;;;;;;;;;;;21.50;32.80;;;;;;5088610;28;19924;-70
2023/03/15 05:28:51;;;;;;;;;;;21.50;32.80;;;;;;5072931;28;19927;-70
2023/03/15 05:31:16;;;;;;;;;;;21.50;32.70;;;;;;5071724;28;20394;-71
2023/03/15 05:33:45;;;;;;;;;;;21.50;32.80;;;;;;5071814;28;19921;-70
2023/03/15 05:36:14;;;;;;;;;;;21.50;32.70;;;;;;5071629;28;19920;-70
2023/03/15 05:38:40;;;;;;;;;;;21.60;32.80;;;;;;5072760;28;19921;-70
2023/03/15 05:41:07;;;;;;;;;;;21.50;32.60;;;;;;5072028;28;20327;-70
2023/03/15 05:43:32;;;;;;;;;;;21.80;32.70;;;;;;5072894;28;19921;-71
2023/03/15 05:45:58;;;;;;;;;;;21.60;32.50;;;;;;5088550;28;20011;-70
2023/03/15 05:48:24;;;;;;;;;;;21.60;32.60;;;;;;5072620;28;20347;-70
2023/03/15 05:50:49;;;;;;;;;;;21.60;32.70;;;;;;5088571;28;19926;-70
2023/03/15 05:53:15;;;;;;;;;;;21.60;32.70;;;;;;5088036;28;19938;-70
2023/03/15 05:55:40;;;;;;;;;;;21.60;32.70;;;;;;5071617;28;19973;-70
2023/03/15 05:58:06;;;;;;;;;;;21.50;32.50;;;;;;5071284;28;20019;-70
2023/03/15 06:00:31;;;;;;;;;;;21.60;32.50;;;;;;5072473;28;19921;-70
2023/03/15 06:02:58;;;;;;;;;;;21.60;32.60;;;;;;5071228;28;20343;-70
2023/03/15 06:05:23;;;;;;;;;;;21.50;32.60;;;;;;5071710;28;20011;-70
2023/03/15 06:07:49;;;;;;;;;;;21.50;32.60;;;;;;5071005;28;20367;-71
2023/03/15 06:10:14;;;;;;;;;;;21.50;32.50;;;;;;5071042;28;19950;-70
2023/03/15 06:12:40;;;;;;;;;;;21.50;32.60;;;;;;5071095;28;19924;-70
2023/03/15 06:15:09;;;;;;;;;;;21.50;32.60;;;;;;5071352;28;19920;-71
2023/03/15 06:17:35;;;;;;;;;;;21.40;32.50;;;;;;5072408;28;19920;-70
2023/03/15 06:20:01;;;;;;;;;;;21.50;32.60;;;;;;5070984;28;20344;-70
2023/03/15 06:22:26;;;;;;;;;;;21.50;32.50;;;;;;5071335;28;19920;-70
2023/03/15 06:24:52;;;;;;;;;;;21.40;32.50;;;;;;5071180;28;19920;-70
2023/03/15 06:27:20;;;;;;;;;;;21.50;32.60;;;;;;5084442;28;20379;-70
2023/03/15 06:29:47;;;;;;;;;;;21.50;32.60;;;;;;5074862;28;19920;-71
2023/03/15 06:32:13;;;;;;;;;;;21.40;32.50;;;;;;5074672;28;20018;-71
2023/03/15 06:34:38;;;;;;;;;;;21.40;32.50;;;;;;5071654;28;20011;-71
2023/03/15 06:37:04;;;;;;;;;;;21.50;32.60;;;;;;5072206;28;20023;-66
2023/03/15 06:39:33;;;;;;;;;;;21.40;32.10;;;;;;5090166;28;19943;-67
2023/03/15 06:42:01;;;;;;;;;;;21.30;31.60;;;;;;5086936;28;20340;-68
2023/03/15 06:44:27;;;;;;;;;;;21.20;31.60;;;;;;5060280;28;20070;-68
2023/03/15 06:46:52;;;;;;;;;;;21.20;31.80;;;;;;5060462;28;19932;-68
2023/03/15 06:49:18;;;;;;;;;;;21.30;32.40;;;;;;5085655;28;20303;-75
2023/03/15 06:51:44;;;;;;;;;;;21.50;33.00;;;;;;5084749;28;20030;-70
2023/03/15 06:54:09;;;;;;;;;;;21.60;32.90;;;;;;5078786;28;20405;-70
2023/03/15 06:56:36;;;;;;;;;;;21.80;32.60;;;;;;5079869;28;19927;-73
2023/03/15 06:59:04;;;;;;;;;;;22.10;32.60;;;;;;5067685;28;19956;-71
2023/03/15 07:01:30;;;;;;;;;;;22.30;32.00;;;;;;5066916;28;19966;-75
2023/03/15 07:03:55;;;;;;;;;;;22.60;31.30;;;;;;5061610;28;20283;-78
2023/03/15 07:06:26;;;;;;;;;;;22.80;30.50;;;;;;5039851;28;19932;-67
2023/03/15 07:08:51;;;;;;;;;;;22.90;30.50;;;;;;5055359;28;19924;-70
2023/03/15 07:11:17;;;;;;;;;;;22.90;30.10;;;;;;5052122;28;19928;-69
2023/03/15 07:13:43;;;;;;;;;;;22.90;29.80;;;;;;5058885;28;19924;-69
2023/03/15 07:16:08;;;;;;;;;;;22.80;30.30;;;;;;5074904;28;19920;-68
2023/03/15 07:18:34;;;;;;;;;;;22.70;30.50;;;;;;5057550;28;19920;-69
2023/03/15 07:21:01;;;;;;;;;;;22.70;31.00;;;;;;5054931;28;19943;-69
2023/03/15 07:23:27;;;;;;;;;;;22.60;31.40;;;;;;5056902;28;19948;-69
2023/03/15 07:25:53;;;;;;;;;;;22.50;31.60;;;;;;5072856;28;20411;-70
2023/03/15 07:28:19;;;;;;;;;;;22.40;31.20;;;;;;5071821;28;19947;-68
2023/03/15 07:33:35;;;;;;;;;;;22.20;31.30;;;;;;5064044;27;19925;-67
2023/03/15 07:36:02;;;;;;;;;;;22.20;31.40;;;;;;5067190;28;19929;-69
2023/03/15 07:38:28;;;;;;;;;;;22.10;31.60;;;;;;5075532;28;19968;-67
2023/03/15 07:40:54;;;;;;;;;;;22.00;31.60;;;;;;5063010;28;21239;-67
2023/03/15 07:43:20;;;;;;;;;;;21.80;31.80;;;;;;5053459;28;20404;-71
2023/03/15 07:45:45;;;;;;;;;;;21.90;32.10;;;;;;5078430;28;19921;-73
2023/03/15 07:48:11;;;;;;;;;;;21.90;32.20;;;;;;5059914;28;19999;-70
2023/03/15 07:50:36;;;;;;;;;;;21.90;32.20;;;;;;5072165;28;20399;-72
2023/03/15 07:53:03;;;;;;;;;;;22.00;32.50;;;;;;5049787;28;20291;-67
2023/03/15 07:55:28;;;;;;;;;;;22.10;32.60;;;;;;5058618;28;19936;-69
2023/03/15 07:57:54;;;;;;;;;;;22.20;32.40;;;;;;5062423;28;19925;-70
2023/03/15 08:00:21;;;;;;;;;;;22.20;32.20;;;;;;5058922;28;19924;-67
2023/03/15 08:02:47;;;;;;;;;;;22.10;32.30;;;;;;5055375;28;19928;-67
2023/03/15 08:05:12;;;;;;;;;;;21.90;32.60;;;;;;5059364;28;19931;-68
2023/03/15 08:07:38;;;;;;;;;;;21.80;32.70;;;;;;5054695;28;20105;-71
2023/03/15 08:10:05;;;;;;;;;;;21.70;32.90;;;;;;5054467;28;20059;-70
2023/03/15 08:12:31;;;;;;;;;;;21.60;33.00;;;;;;5063406;28;20578;-70
2023/03/15 08:14:57;;;;;;;;;;;21.60;33.50;;;;;;5057179;28;20023;-69
2023/03/15 08:17:23;;;;;;;;;;;21.50;33.40;;;;;;5048535;28;20474;-70
2023/03/15 08:19:48;;;;;;;;;;;21.40;33.50;;;;;;5049242;28;19924;-69
2023/03/15 08:22:15;;;;;;;;;;;21.30;33.70;;;;;;5057301;28;20011;-71
2023/03/15 08:24:40;;;;;;;;;;;21.30;33.90;;;;;;5060380;28;19925;-71
2023/03/15 08:27:06;;;;;;;;;;;21.20;33.80;;;;;;5059959;28;20348;-69
2023/03/15 08:29:32;;;;;;;;;;;21.20;33.90;;;;;;5070723;28;19964;-68
2023/03/15 08:31:57;;;;;;;;;;;21.20;34.10;;;;;;5051931;28;19929;-74
2023/03/15 08:34:24;;;;;;;;;;;21.20;34.10;;;;;;5058665;28;19979;-68
2023/03/15 08:36:49;;;;;;;;;;;21.20;34.20;;;;;;5052292;28;20645;-69
2023/03/15 08:39:15;;;;;;;;;;;21.20;34.40;;;;;;5055128;28;19957;-71
2023/03/15 08:41:42;;;;;;;;;;;21.20;34.30;;;;;;5058402;28;19925;-69
2023/03/15 08:44:10;;;;;;;;;;;21.20;34.40;;;;;;5048229;28;20034;-67
2023/03/15 08:46:36;;;;;;;;;;;21.20;34.70;;;;;;5050892;28;19920;-70
2023/03/15 08:49:01;;;;;;;;;;;21.30;34.40;;;;;;5059101;28;19936;-67
2023/03/15 08:51:29;;;;;;;;;;;21.30;34.30;;;;;;5044824;28;19931;-69
2023/03/15 08:53:54;;;;;;;;;;;21.30;34.40;;;;;;5044292;28;19921;-70
2023/03/15 08:56:20;;;;;;;;;;;21.30;34.30;;;;;;5042223;28;20070;-71
2023/03/15 08:58:45;;;;;;;;;;;21.40;34.60;;;;;;5042636;28;19925;-70
2023/03/15 09:01:11;;;;;;;;;;;21.40;34.60;;;;;;5042891;28;20547;-72
2023/03/15 09:03:37;;;;;;;;;;;21.40;34.70;;;;;;5052145;28;19921;-70
2023/03/15 09:06:02;;;;;;;;;;;21.50;34.60;;;;;;5060712;28;20261;-68
2023/03/15 09:08:28;;;;;;;;;;;21.40;34.50;;;;;;5046073;28;20022;-68
2023/03/15 09:10:54;;;;;;;;;;;21.50;34.40;;;;;;5061557;28;19925;-69
2023/03/15 09:13:20;;;;;;;;;;;21.40;33.30;;;;;;5039459;28;19928;-70
2023/03/15 09:15:55;;;;;;;;;;;21.30;32.40;;;;;;5040477;28;19931;-69
2023/03/15 09:18:21;;;;;;;;;;;21.20;32.40;;;;;;5031086;28;19985;-74
2023/03/15 09:20:48;;;;;;;;;;;21.10;32.50;;;;;;5037468;28;19921;-71
2023/03/15 09:23:13;;;;;;;;;;;21.20;32.50;;;;;;5046828;28;19959;-70
2023/03/15 09:25:59;;;;;;;;;;;21.20;32.50;;;;;;5045457;28;20329;-70
2023/03/15 09:28:28;;;;;;;;;;;21.30;32.20;;;;;;5047682;28;19928;-69
2023/03/15 09:30:56;;;;;;;;;;;21.30;32.10;;;;;;5065351;28;19920;-70
2023/03/15 09:33:24;;;;;;;;;;;21.40;31.40;;;;;;5037867;28;19928;-68
2023/03/15 09:35:51;;;;;;;;;;;21.30;31.50;;;;;;5037842;28;20380;-67
2023/03/15 09:38:17;;;;;;;;;;;21.30;31.90;;;;;;5036689;28;19928;-68
2023/03/15 09:40:45;;;;;;;;;;;21.20;31.80;;;;;;5051438;28;19924;-68
2023/03/15 09:46:05;;;;;;;;;;;21.20;32.00;;;;;;5079676;27;19927;-70
2023/03/15 09:48:34;;;;;;;;;;;21.30;31.80;;;;;;5051954;28;20027;-73
2023/03/15 09:51:03;;;;;;;;;;;21.20;31.60;;;;;;5088206;28;19924;-72
2023/03/15 09:53:32;;;;;;;;;;;21.20;31.90;;;;;;5056888;28;19935;-69
2023/03/15 09:55:58;;;;;;;;;;;21.20;31.50;;;;;;5061737;28;20062;-68
2023/03/15 09:58:31;;;;;;;;;;;21.20;31.50;;;;;;5095442;28;20003;-72
2023/03/15 10:01:02;;;;;;;;;;;21.20;31.40;;;;;;5052535;28;20003;-73
2023/03/15 10:03:32;;;;;;;;;;;21.30;31.60;;;;;;5047597;28;19924;-67
2023/03/15 10:06:00;;;;;;;;;;;21.20;31.90;;;;;;5052077;28;19986;-66
2023/03/15 10:08:25;;;;;;;;;;;21.20;31.90;;;;;;5083730;28;20193;-69
2023/03/15 10:13:43;;;;;;;;;;;21.20;32.10;;;;;;5086057;27;20449;-67
2023/03/15 10:21:41;;;;;;;;;;;21.00;31.20;;;;;;5066292;28;19921;-68
2023/03/15 10:24:13;;;;;;;;;;;20.90;30.00;;;;;;5052442;28;20439;-69
2023/03/15 10:26:41;;;;;;;;;;;20.70;30.80;;;;;;5055162;28;19924;-69
2023/03/15 10:29:10;;;;;;;;;;;20.70;31.10;;;;;;5050274;28;19924;-69
2023/03/15 10:31:39;;;;;;;;;;;20.70;31.10;;;;;;5051572;28;19943;-70
2023/03/15 10:34:04;;;;;;;;;;;20.70;30.80;;;;;;5051682;28;19935;-72
2023/03/15 10:36:30;;;;;;;;;;;20.80;31.20;;;;;;5048332;28;19924;-73
2023/03/15 10:38:56;;;;;;;;;;;20.80;31.70;;;;;;5046736;28;19925;-68
2023/03/15 10:41:37;;;;;;;;;;;20.90;32.40;;;;;;5065917;28;19932;-72
2023/03/15 10:44:05;;;;;;;;;;;20.90;31.60;;;;;;5064910;28;20285;-73
2023/03/15 10:46:31;;;;;;;;;;;20.90;31.70;;;;;;5052966;28;20586;-74
2023/03/15 10:48:58;;;;;;;;;;;20.90;31.60;;;;;;5046629;28;19990;-72
2023/03/15 10:54:07;;;;;;;;;;;20.90;31.50;;;;;;5084461;27;20317;-67
2023/03/15 10:56:42;;;;;;;;;;;21.00;31.20;;;;;;5054868;28;19929;-66
2023/03/15 10:59:17;;;;;;;;;;;21.10;31.20;;;;;;5075551;28;19925;-67
2023/03/15 11:01:46;;;;;;;;;;;21.10;31.10;;;;;;5065767;28;19922;-67
2023/03/15 11:04:15;;;;;;;;;;;21.20;30.90;;;;;;5055496;28;19924;-71
2023/03/15 11:06:42;;;;;;;;;;;21.20;31.00;;;;;;5049068;28;19928;-68
2023/03/15 11:09:09;;;;;;;;;;;21.20;31.10;;;;;;5050737;28;20454;-69
2023/03/15 11:11:55;;;;;;;;;;;21.30;31.20;;;;;;5044387;28;20040;-69
2023/03/15 11:14:23;;;;;;;;;;;21.30;31.30;;;;;;5046949;28;19932;-66
2023/03/15 11:16:52;;;;;;;;;;;21.30;31.10;;;;;;5054115;28;19967;-69
2023/03/15 11:19:19;;;;;;;;;;;21.30;30.90;;;;;;5051343;28;19936;-68
2023/03/15 11:21:46;;;;;;;;;;;21.30;30.90;;;;;;5068253;28;19935;-66
2023/03/15 11:24:19;;;;;;;;;;;21.20;31.80;;;;;;5069731;28;19920;-67
2023/03/15 11:26:52;;;;;;;;;;;21.20;30.90;;;;;;5067885;28;19931;-67
2023/03/15 11:29:26;;;;;;;;;;;21.20;30.80;;;;;;5045459;28;19982;-68
2023/03/15 11:31:52;;;;;;;;;;;21.20;30.80;;;;;;5049612;28;19924;-67
2023/03/15 11:34:24;;;;;;;;;;;21.30;30.60;;;;;;5048511;28;20627;-68
2023/03/15 11:36:53;;;;;;;;;;;21.30;30.90;;;;;;5046696;28;19924;-74
2023/03/15 11:39:26;;;;;;;;;;;21.40;30.80;;;;;;5062400;28;20011;-72
2023/03/15 11:41:55;;;;;;;;;;;21.40;30.00;;;;;;5052682;28;19960;-71
2023/03/15 11:44:26;;;;;;;;;;;21.40;29.10;;;;;;5054397;28;19931;-71
2023/03/15 11:46:57;;;;;;;;;;;21.30;28.90;;;;;;5073839;28;19924;-74
2023/03/15 11:49:29;;;;;;;;;;;21.20;29.40;;;;;;5055450;28;20939;-70
2023/03/15 11:51:56;;;;;;;;;;;21.30;29.70;;;;;;5061239;28;19928;-70
2023/03/15 11:54:21;;;;;;;;;;;21.40;29.20;;;;;;5060927;28;19993;-73
2023/03/15 11:59:31;;;;;;;;;;;21.40;29.50;;;;;;5106092;27;20285;-72
2023/03/15 12:01:59;;;;;;;;;;;21.40;29.30;;;;;;5086077;28;20593;-69
2023/03/15 12:04:35;;;;;;;;;;;21.40;29.20;;;;;;5113315;27;19989;-72
2023/03/15 12:07:02;;;;;;;;;;;21.40;28.70;;;;;;5085968;28;20427;-71
2023/03/15 12:15:29;;;;;;;;;;;21.50;29.30;;;;;;5101446;27;19916;-71
2023/03/15 12:17:55;;;;;;;;;;;21.50;29.10;;;;;;5068821;28;20011;-69
2023/03/15 12:20:41;;;;;;;;;;;21.50;29.10;;;;;;5080502;28;20002;-69
2023/03/15 12:23:16;;;;;;;;;;;21.50;29.00;;;;;;5081464;28;19955;-68
2023/03/15 12:25:58;;;;;;;;;;;21.50;28.90;;;;;;5063767;28;19928;-70
2023/03/15 12:28:27;;;;;;;;;;;21.60;29.40;;;;;;5079123;28;19927;-70
2023/03/15 12:30:55;;;;;;;;;;;21.70;29.40;;;;;;5082905;28;20565;-65
2023/03/15 12:33:21;;;;;;;;;;;21.70;29.40;;;;;;5081941;28;19928;-67
2023/03/15 12:35:47;;;;;;;;;;;21.80;29.40;;;;;;5092673;28;19931;-66
2023/03/15 12:38:16;;;;;;;;;;;21.90;29.50;;;;;;5086750;28;20002;-64
2023/03/15 12:43:40;;;;;;;;;;;21.90;29.80;;;;;;5130214;27;19919;-68
2023/03/15 12:46:06;;;;;;;;;;;21.80;29.80;;;;;;5140402;27;20006;-67
2023/03/15 12:48:32;;;;;;;;;;;21.90;29.90;;;;;;5143405;27;20015;-67
2023/03/15 12:51:02;;;;;;;;;;;21.90;29.90;;;;;;5121630;28;19930;-67
2023/03/15 12:56:26;;;;;;;;;;;21.80;30.10;;;;;;5082973;27;19930;-70
2023/03/15 12:58:54;;;;;;;;;;;21.90;30.30;;;;;;5083392;28;19924;-68
2023/03/15 13:01:24;;;;;;;;;;;21.80;30.30;;;;;;5081841;28;19931;-70
2023/03/15 13:03:53;;;;;;;;;;;21.80;30.30;;;;;;5087600;28;19924;-70
2023/03/15 13:06:38;;;;;;;;;;;21.90;30.60;;;;;;5090201;28;19919;-70
2023/03/15 13:12:13;;;;;;;;;;;21.80;30.70;;;;;;5079902;28;19920;-64
2023/03/15 13:15:02;;;;;;;;;;;21.70;30.70;;;;;;5078931;28;19970;-70
2023/03/15 13:20:17;;;;;;;;;;;21.60;30.70;;;;;;5123828;27;19912;-62
2023/03/15 13:25:34;;;;;;;;;;;21.50;30.80;;;;;;5110281;27;19938;-72
2023/03/15 13:28:05;;;;;;;;;;;21.50;31.00;;;;;;5085620;28;19924;-73
2023/03/15 13:30:34;;;;;;;;;;;21.40;31.20;;;;;;5119920;27;19934;-68
2023/03/15 13:33:19;;;;;;;;;;;21.30;31.30;;;;;;5086100;28;19943;-67
2023/03/15 13:35:47;;;;;;;;;;;21.30;31.60;;;;;;5086330;28;20504;-67
2023/03/15 13:41:29;;;;;;;;;;;21.30;31.80;;;;;;5107244;27;19918;-67
2023/03/15 13:43:55;;;;;;;;;;;21.10;31.70;;;;;;5104450;28;19923;-68
2023/03/15 13:46:22;;;;;;;;;;;21.10;31.90;;;;;;5102824;28;19920;-68
2023/03/15 13:48:49;;;;;;;;;;;21.00;31.90;;;;;;5105741;28;19927;-68
2023/03/15 13:51:21;;;;;;;;;;;20.90;31.90;;;;;;5105311;28;19927;-68
2023/03/15 13:53:48;;;;;;;;;;;20.80;31.90;;;;;;5103680;28;19920;-68
2023/03/15 13:56:15;;;;;;;;;;;20.80;32.10;;;;;;5104964;28;19920;-67
2023/03/15 13:58:42;;;;;;;;;;;20.70;32.20;;;;;;5105627;28;20386;-67
2023/03/15 14:01:10;;;;;;;;;;;20.60;32.20;;;;;;5105407;28;19997;-69
2023/03/15 14:03:36;;;;;;;;;;;20.60;32.30;;;;;;5102911;28;19931;-68
2023/03/15 14:06:02;;;;;;;;;;;20.50;32.40;;;;;;5104852;28;19927;-67
2023/03/15 14:08:29;;;;;;;;;;;20.40;32.40;;;;;;5105488;28;19920;-67
2023/03/15 14:11:14;;;;;;;;;;;20.40;32.50;;;;;;5105323;28;19920;-67
2023/03/15 14:13:57;;;;;;;;;;;20.30;32.50;;;;;;5105436;28;20029;-67
2023/03/15 14:16:42;;;;;;;;;;;20.30;32.50;;;;;;5097118;28;19927;-67
2023/03/15 14:19:18;;;;;;;;;;;20.20;32.50;;;;;;5098610;28;20548;-67
2023/03/15 14:21:46;;;;;;;;;;;20.20;32.50;;;;;;5097683;28;19943;-67
2023/03/15 14:24:15;;;;;;;;;;;20.20;32.60;;;;;;5105243;28;19919;-69
2023/03/15 14:26:41;;;;;;;;;;;20.10;32.60;;;;;;5106592;28;19920;-67
2023/03/15 14:29:15;;;;;;;;;;;20.10;32.60;;;;;;5139600;27;19977;-67
2023/03/15 14:31:45;;;;;;;;;;;20.10;32.70;;;;;;5107360;28;19924;-67
2023/03/15 14:34:22;;;;;;;;;;;20.00;32.80;;;;;;5105057;28;19927;-68
2023/03/15 14:36:48;;;;;;;;;;;20.00;32.80;;;;;;5105676;28;20044;-68
2023/03/15 14:39:18;;;;;;;;;;;19.90;32.90;;;;;;5105443;28;20011;-68
2023/03/15 14:41:44;;;;;;;;;;;19.80;32.90;;;;;;5105831;28;19920;-67
2023/03/15 14:44:10;;;;;;;;;;;19.80;33.00;;;;;;5104932;28;20014;-68
2023/03/15 14:46:35;;;;;;;;;;;19.80;33.10;;;;;;5104983;28;20045;-67
2023/03/15 14:49:01;;;;;;;;;;;19.70;33.20;;;;;;5104284;28;20370;-68
2023/03/15 14:51:27;;;;;;;;;;;19.70;33.20;;;;;;5096312;28;19927;-67
2023/03/15 14:53:55;;;;;;;;;;;19.70;33.30;;;;;;5091597;28;19963;-68
2023/03/15 14:56:21;;;;;;;;;;;19.60;33.30;;;;;;5118594;27;19920;-68
2023/03/15 14:58:48;;;;;;;;;;;19.60;33.40;;;;;;5092629;28;20329;-67
2023/03/15 15:01:16;;;;;;;;;;;19.60;33.50;;;;;;5091191;28;19963;-68
2023/03/15 15:03:47;;;;;;;;;;;19.50;33.50;;;;;;5091449;28;19967;-67
2023/03/15 15:06:15;;;;;;;;;;;19.50;34.20;;;;;;5091719;28;19920;-68